MBS weather

MBS International Airport
Saginaw, Michigan, United States

Public forecast

Using degrees Fahrenheit for public forecast. Weather courtesy of forecast.io.

Current aviation weather report (METAR) for MBS International Airport

Retrieved 2019/10/15 08:53 UTC (60 minutes ago):

KMBS 150853Z AUTO 17003KT 10SM CLR 02/00 A3009 RMK AO2 SLP196 T00220000 58003

Aviation forecast (TAF) for MBS International Airport

Retrieved 2019/10/15 06:22 UTC (4 hours ago):

TAF KMBS 150520Z 1506/1606 VRB03KT P6SM SCT250 FM151500 17009KT P6SM BKN150 FM151800 18010KT P6SM OVC100 FM152100 18010KT P6SM BKN050 FM160100 20007KT 5SM -SHRA OVC010